ADDS METAR Data INFO
IDs: Format: Raw Decoded Include TAF

Data at: 0717 UTC 19 Oct 2017

KDIK 190656Z AUTO 17010KT 10SM CLR 04/M03 A2982 RMK AO2 SLP104 T00441033 401780022
KDIK 190556Z AUTO 18010KT 10SM CLR 07/M03 A2984 RMK AO2 SLP110 T00721033 10089 20022 58020
KDIK 190456Z AUTO 18009KT 10SM CLR 05/M03 A2987 RMK AO2 SLP121 T00501028
KDIK 190356Z AUTO 17008KT 10SM CLR 03/M04 A2989 RMK AO2 SLP132 T00281039
KDIK 190256Z AUTO 17006KT 10SM CLR 03/M04 A2990 RMK AO2 SLP140 T00331039 58006
KDIK 190156Z AUTO 16004KT 10SM FEW100 05/M04 A2992 RMK AO2 SLP146 T00501039
KDIK 190056Z AUTO 21003KT 10SM CLR 07/M04 A2993 RMK AO2 SLP146 T00671044
KDIK 182356Z AUTO 24005KT 10SM CLR 09/M04 A2992 RMK AO2 SLP140 T00891039 10150 20089 56010
KDIK 182256Z AUTO 26009KT 10SM CLR 13/M04 A2992 RMK AO2 SLP135 T01331044
KDIK 182156Z AUTO 26016G21KT 10SM CLR 14/M05 A2995 RMK AO2 SLP140 T01441050
KDIK 182056Z AUTO 26013KT 10SM CLR 15/M04 A2996 RMK AO2 SLP139 T01501044 57013
KDIK 181956Z AUTO 27015G22KT 10SM CLR 14/M06 A2997 RMK AO2 SLP142 T01391056
KDIK 181856Z AUTO 27013G20KT 10SM CLR 13/M06 A2999 RMK AO2 SLP151 T01281056
KDIK 181756Z AUTO 28017KT 10SM CLR 12/M05 A3000 RMK AO2 SLP157 T01221050 10122 20044 50008
KDIK 181656Z AUTO 29015KT 10SM CLR 11/M05 A3000 RMK AO2 SLP160 T01111050
KDIK 181556Z AUTO 28016KT 10SM CLR 10/M04 A2999 RMK AO2 SLP158 T01001044
KDIK 181456Z AUTO 28010KT 10SM CLR 08/M04 A2997 RMK AO2 SLP150 T00781039 53028
KDIK 181356Z AUTO 28007KT 10SM CLR 04/M03 A2994 RMK AO2 PRESRR SLP145 T00441028
KDIK 181256Z AUTO 31011KT 10SM CLR 06/M03 A2990 RMK AO2 SLP131 T00561028
KDIK 181156Z AUTO 32011KT 10SM CLR 08/M03 A2988 RMK AO2 PK WND 31027/1057 SLP120 T00831033 10178 20083 51049
KDIK 181056Z AUTO 31019G26KT 10SM CLR 10/M02 A2983 RMK AO2 PK WND 31027/1013 SLP094 T01001022
KDIK 180956Z AUTO 31019G26KT 6SM HZ SCT020 11/M02 A2978 RMK AO2 PK WND 33035/0857 SLP076 T01111022
KDIK 180910Z AUTO 32025G35KT 3SM HZ BKN022 14/00 A2974 RMK AO2 PK WND 33035/0857 T01390000
KDIK 180856Z AUTO 34025G35KT 7SM FEW024 16/M03 A2972 RMK AO2 PK WND 33035/0856 PRESRR SLP050 T01611033 53040
KDIK 180756Z AUTO 28016KT 10SM CLR 16/M06 A2965 RMK AO2 SLP026 T01561056
KDIK 180656Z AUTO 24017KT 10SM CLR 16/M06 A2962 RMK AO2 SLP015 T01561056 402440056
KDIK 180556Z AUTO 20013KT 10SM CLR 14/M04 A2960 RMK AO2 SLP011 T01441039 10172 20106 56013
KDIK 180456Z AUTO 20013KT 10SM CLR 13/M04 A2961 RMK AO2 SLP017 T01331039
KDIK 180356Z AUTO 20012KT 10SM CLR 14/M04 A2962 RMK AO2 SLP023 T01441039
KDIK 180256Z AUTO 21016KT 10SM CLR 17/M04 A2964 RMK AO2 SLP030 T01671044 58020
KDIK 180156Z AUTO 21011KT 10SM CLR 14/M04 A2966 RMK AO2 SLP044 T01391044
KDIK 180056Z AUTO 21012KT 10SM CLR 13/M04 A2969 RMK AO2 SLP056 T01281039
KDIK 172356Z AUTO 22011KT 10SM CLR 15/M04 A2970 RMK AO2 SLP059 T01501039 10244 20150 57017
KDIK 172256Z AUTO 23014KT 10SM CLR 23/M04 A2972 RMK AO2 PK WND 26027/2207 SLP057 T02281044
KDIK 172156Z AUTO 26022G27KT 10SM CLR 24/M06 A2974 RMK AO2 PK WND 26027/2150 SLP062 T02391056
KDIK 172056Z AUTO 26017G23KT 10SM CLR 24/M04 A2976 RMK AO2 SLP070 T02441044 58033
KDIK 171956Z AUTO 25015KT 10SM CLR 24/M04 A2979 RMK AO2 SLP083 T02391039